createdAt,value
2023-10-08T00:00:50.791Z,17.50
2023-10-08T00:03:19.613Z,17.50
2023-10-08T00:05:48.461Z,17.50
2023-10-08T00:08:17.640Z,17.60
2023-10-08T00:10:46.561Z,17.60
2023-10-08T00:13:16.947Z,17.50
2023-10-08T00:15:53.130Z,17.50
2023-10-08T00:18:21.287Z,17.50
2023-10-08T00:20:56.062Z,17.40
2023-10-08T00:23:26.973Z,17.40
2023-10-08T00:25:55.869Z,17.50
2023-10-08T00:28:25.765Z,17.50
2023-10-08T00:30:56.332Z,17.50
2023-10-08T00:33:25.445Z,17.50
2023-10-08T00:35:53.556Z,17.40
2023-10-08T00:38:22.436Z,17.40
2023-10-08T00:40:50.433Z,17.30
2023-10-08T00:43:36.457Z,17.40
2023-10-08T00:46:18.337Z,17.30
2023-10-08T00:48:47.366Z,17.30
2023-10-08T00:51:27.099Z,17.30
2023-10-08T00:53:59.946Z,17.20
2023-10-08T00:56:46.111Z,17.20
2023-10-08T00:59:16.796Z,17.10
2023-10-08T01:01:52.295Z,17.10
2023-10-08T01:04:24.234Z,17.00
2023-10-08T01:06:56.159Z,16.90
2023-10-08T01:09:32.938Z,16.90
2023-10-08T01:12:10.137Z,16.90
2023-10-08T01:14:43.387Z,17.00
2023-10-08T01:17:13.911Z,17.10
2023-10-08T01:19:43.505Z,17.10
2023-10-08T01:22:19.390Z,17.20
2023-10-08T01:24:49.985Z,17.20
2023-10-08T01:27:23.209Z,17.20
2023-10-08T01:29:53.204Z,17.20
2023-10-08T01:32:23.086Z,17.30
2023-10-08T01:34:51.433Z,17.30
2023-10-08T01:37:21.004Z,17.40
2023-10-08T01:39:51.323Z,17.40
2023-10-08T01:42:19.600Z,17.40
2023-10-08T01:44:48.701Z,17.40
2023-10-08T01:47:17.224Z,17.40
2023-10-08T01:49:46.888Z,17.30
2023-10-08T01:52:20.034Z,17.30
2023-10-08T01:54:49.526Z,17.30
2023-10-08T01:57:18.308Z,17.30
2023-10-08T01:59:46.743Z,17.20
2023-10-08T02:02:16.460Z,17.20
2023-10-08T02:04:45.607Z,17.10
2023-10-08T02:07:14.120Z,17.10
2023-10-08T02:09:42.413Z,17.10
2023-10-08T02:12:15.333Z,17.20
2023-10-08T02:14:43.490Z,17.20
2023-10-08T02:17:11.603Z,17.20
2023-10-08T02:19:39.881Z,17.20
2023-10-08T02:22:10.851Z,17.20
2023-10-08T02:24:39.070Z,17.20
2023-10-08T02:27:08.024Z,17.20
2023-10-08T02:29:37.455Z,17.20
2023-10-08T02:32:05.887Z,17.20
2023-10-08T02:34:34.017Z,17.20
2023-10-08T02:37:04.304Z,17.20
2023-10-08T02:39:33.180Z,17.20
2023-10-08T02:42:01.608Z,17.30
2023-10-08T02:44:29.694Z,17.20
2023-10-08T02:46:59.111Z,17.30
2023-10-08T02:49:31.363Z,17.20
2023-10-08T02:51:59.637Z,17.30
2023-10-08T02:54:33.906Z,17.30
2023-10-08T02:57:05.203Z,17.20
2023-10-08T02:59:41.116Z,17.20
2023-10-08T03:02:19.733Z,17.10
2023-10-08T03:04:48.704Z,17.10
2023-10-08T03:07:23.848Z,17.10
2023-10-08T03:10:04.196Z,17.10
2023-10-08T03:12:33.309Z,17.10
2023-10-08T03:15:13.745Z,17.10
2023-10-08T03:17:50.449Z,17.10
2023-10-08T03:20:39.172Z,17.10
2023-10-08T03:23:13.171Z,17.00
2023-10-08T03:25:43.556Z,17.00
2023-10-08T03:28:14.039Z,17.00
2023-10-08T03:30:51.073Z,17.00
2023-10-08T03:33:24.919Z,17.00
2023-10-08T03:35:56.218Z,16.90
2023-10-08T03:38:29.568Z,17.00
2023-10-08T03:41:09.900Z,16.90
2023-10-08T03:43:47.793Z,16.90
2023-10-08T03:46:17.372Z,16.90
2023-10-08T03:48:46.810Z,16.80
2023-10-08T03:51:15.901Z,16.70
2023-10-08T03:53:59.771Z,16.70
2023-10-08T03:56:30.940Z,16.60
2023-10-08T03:59:01.758Z,16.60
2023-10-08T04:01:33.400Z,16.50
2023-10-08T04:04:03.006Z,16.50
2023-10-08T04:06:31.979Z,16.40
2023-10-08T04:09:13.201Z,16.40
2023-10-08T04:11:53.942Z,16.30
2023-10-08T04:14:24.479Z,16.30
2023-10-08T04:16:53.602Z,16.20
2023-10-08T04:19:28.056Z,16.20
2023-10-08T04:21:56.681Z,16.20
2023-10-08T04:24:29.458Z,16.20
2023-10-08T04:27:03.452Z,16.20
2023-10-08T04:29:33.703Z,16.10
2023-10-08T04:32:10.435Z,16.10
2023-10-08T04:34:45.520Z,16.10
2023-10-08T04:37:14.295Z,16.00
2023-10-08T04:39:49.693Z,15.90
2023-10-08T04:42:26.714Z,15.90
2023-10-08T04:44:55.771Z,15.80
2023-10-08T04:47:34.072Z,15.70
2023-10-08T04:50:05.973Z,15.70
2023-10-08T04:52:35.592Z,15.60
2023-10-08T04:55:13.901Z,15.60
2023-10-08T04:57:43.883Z,15.60
2023-10-08T05:00:16.706Z,15.50
2023-10-08T05:02:51.801Z,15.50
2023-10-08T05:05:24.319Z,15.50
2023-10-08T05:08:17.991Z,15.40
2023-10-08T05:11:25.869Z,15.40
2023-10-08T05:14:06.936Z,15.30
2023-10-08T05:16:44.775Z,15.30
2023-10-08T05:19:47.339Z,15.30
2023-10-08T05:22:40.680Z,15.20
2023-10-08T05:25:09.551Z,15.20
2023-10-08T05:27:57.940Z,15.10
2023-10-08T05:30:39.510Z,15.00
2023-10-08T05:33:13.732Z,15.00
2023-10-08T05:35:51.035Z,14.90
2023-10-08T05:38:38.524Z,14.80
2023-10-08T05:41:18.021Z,14.80
2023-10-08T05:43:56.939Z,14.90
2023-10-08T05:46:42.649Z,14.90
2023-10-08T05:49:27.489Z,15.00
2023-10-08T05:52:26.503Z,15.10
2023-10-08T05:55:13.300Z,15.20
2023-10-08T05:57:41.766Z,15.30
2023-10-08T06:00:38.788Z,15.40
2023-10-08T06:03:12.995Z,15.40
2023-10-08T06:05:47.422Z,15.50
2023-10-08T06:08:16.076Z,15.60
2023-10-08T06:10:52.581Z,15.60
2023-10-08T06:13:30.936Z,15.70
2023-10-08T06:16:09.574Z,15.80
2023-10-08T06:18:36.714Z,16.00
2023-10-08T06:21:09.317Z,16.10
2023-10-08T06:23:37.893Z,16.20
2023-10-08T06:26:16.199Z,16.30
2023-10-08T06:28:45.223Z,16.40
2023-10-08T06:31:17.433Z,16.50
2023-10-08T06:33:46.373Z,16.60
2023-10-08T06:36:17.664Z,16.70
2023-10-08T06:38:46.014Z,16.90
2023-10-08T06:41:27.289Z,17.10
2023-10-08T06:44:07.681Z,17.30
2023-10-08T06:46:36.135Z,17.60
2023-10-08T06:49:07.375Z,17.60
2023-10-08T06:51:36.409Z,17.70
2023-10-08T06:54:05.463Z,17.80
2023-10-08T06:56:34.950Z,17.80
2023-10-08T06:59:03.646Z,17.80
2023-10-08T07:01:39.897Z,17.90
2023-10-08T07:04:13.662Z,17.90
2023-10-08T07:06:42.129Z,17.90
2023-10-08T07:09:23.785Z,18.00
2023-10-08T07:11:55.961Z,18.10
2023-10-08T07:14:27.877Z,18.10
2023-10-08T07:16:59.873Z,18.10
2023-10-08T07:19:34.138Z,18.00
2023-10-08T07:22:07.033Z,18.00
2023-10-08T07:24:38.199Z,17.90
2023-10-08T07:27:10.141Z,17.90
2023-10-08T07:29:38.609Z,18.00
2023-10-08T07:32:11.951Z,18.00
2023-10-08T07:34:40.226Z,18.10
2023-10-08T07:37:08.597Z,18.10
2023-10-08T07:39:36.829Z,18.20
2023-10-08T07:42:07.038Z,18.20
2023-10-08T07:44:39.720Z,18.30
2023-10-08T07:47:11.367Z,18.30
2023-10-08T07:49:39.593Z,18.30
2023-10-08T07:52:07.572Z,18.30
2023-10-08T07:54:36.426Z,18.30
2023-10-08T07:57:11.259Z,18.30
2023-10-08T07:59:42.910Z,18.30
2023-10-08T08:02:12.335Z,18.30
2023-10-08T08:04:41.178Z,18.30
2023-10-08T08:07:09.325Z,18.20
2023-10-08T08:09:39.177Z,18.20
2023-10-08T08:12:12.328Z,18.30
2023-10-08T08:14:42.879Z,18.20
2023-10-08T08:17:15.481Z,18.20
2023-10-08T08:19:45.213Z,18.30
2023-10-08T08:22:21.952Z,18.20
2023-10-08T08:24:57.463Z,18.20
2023-10-08T08:27:33.124Z,18.10
2023-10-08T08:30:12.541Z,18.10
2023-10-08T08:32:41.428Z,18.10
2023-10-08T08:35:10.306Z,18.00
2023-10-08T08:37:39.397Z,18.00
2023-10-08T08:40:10.157Z,18.00
2023-10-08T08:42:38.978Z,18.00
2023-10-08T08:45:12.852Z,18.00
2023-10-08T08:47:42.232Z,17.90
2023-10-08T08:50:10.633Z,17.90
2023-10-08T08:52:39.289Z,17.90
2023-10-08T08:55:15.263Z,17.80
2023-10-08T08:57:44.882Z,17.70
2023-10-08T09:00:15.663Z,17.80
2023-10-08T09:02:45.940Z,17.70
2023-10-08T09:05:26.003Z,17.70
2023-10-08T09:07:57.536Z,17.70
2023-10-08T09:10:29.074Z,17.60
2023-10-08T09:12:59.655Z,17.60
2023-10-08T09:15:29.366Z,17.50
2023-10-08T09:18:01.929Z,17.40
2023-10-08T09:20:32.868Z,17.30
2023-10-08T09:23:09.062Z,17.10
2023-10-08T09:25:37.058Z,17.00
2023-10-08T09:28:08.616Z,16.90
2023-10-08T09:30:39.287Z,16.80
2023-10-08T09:33:08.122Z,16.60
2023-10-08T09:35:37.531Z,16.40
2023-10-08T09:38:06.408Z,16.40
2023-10-08T09:40:34.300Z,16.30
2023-10-08T09:43:03.362Z,16.30
2023-10-08T09:45:31.479Z,16.20
2023-10-08T09:48:03.205Z,16.10
2023-10-08T09:50:34.908Z,16.00
2023-10-08T09:53:05.281Z,15.90
2023-10-08T09:55:33.526Z,15.80
2023-10-08T09:58:01.646Z,15.70
2023-10-08T10:00:33.804Z,15.60
2023-10-08T10:03:04.754Z,15.50
2023-10-08T10:05:35.370Z,15.40
2023-10-08T10:08:06.495Z,15.40
2023-10-08T10:10:36.104Z,15.30
2023-10-08T10:13:05.433Z,15.20
2023-10-08T10:15:35.876Z,15.10
2023-10-08T10:18:16.194Z,15.00
2023-10-08T10:20:46.931Z,15.00
2023-10-08T10:23:33.688Z,14.90
2023-10-08T10:26:02.157Z,14.90
2023-10-08T10:28:30.696Z,14.80
2023-10-08T10:30:59.261Z,14.70
2023-10-08T10:33:34.460Z,14.70
2023-10-08T10:36:03.309Z,14.50
2023-10-08T10:38:31.708Z,14.40
2023-10-08T10:40:59.610Z,14.30
2023-10-08T10:43:33.415Z,14.20
2023-10-08T10:46:06.653Z,14.10
2023-10-08T10:48:40.049Z,13.90
2023-10-08T10:51:11.253Z,13.80
2023-10-08T10:53:46.135Z,13.80
2023-10-08T10:56:19.383Z,13.60
2023-10-08T10:58:54.633Z,13.60
2023-10-08T11:01:24.898Z,13.50
2023-10-08T11:03:54.914Z,13.50
2023-10-08T11:06:24.669Z,13.40
2023-10-08T11:08:53.649Z,13.30
2023-10-08T11:11:28.706Z,13.20
2023-10-08T11:14:01.389Z,13.10
2023-10-08T11:16:32.605Z,13.00
2023-10-08T11:19:07.963Z,13.00
2023-10-08T11:21:49.817Z,12.80
2023-10-08T11:24:28.935Z,12.80
2023-10-08T11:27:07.449Z,12.80
2023-10-08T11:29:39.478Z,12.70
2023-10-08T11:32:09.801Z,12.60
2023-10-08T11:34:40.425Z,12.60
2023-10-08T11:37:20.888Z,12.50
2023-10-08T11:39:49.730Z,12.50
2023-10-08T11:42:35.264Z,12.30
2023-10-08T11:45:18.913Z,12.20
2023-10-08T11:47:49.682Z,12.10
2023-10-08T11:50:20.591Z,12.00
2023-10-08T11:52:48.778Z,11.90
2023-10-08T11:55:20.156Z,11.80
2023-10-08T11:57:50.108Z,11.60
2023-10-08T12:00:31.826Z,11.60
2023-10-08T12:03:04.072Z,11.50
2023-10-08T12:05:35.641Z,11.50
2023-10-08T12:08:03.887Z,11.40
2023-10-08T12:10:35.539Z,11.40
2023-10-08T12:13:07.000Z,11.30
2023-10-08T12:15:39.711Z,11.30
2023-10-08T12:18:14.721Z,11.20
2023-10-08T12:20:47.749Z,11.20
2023-10-08T12:23:25.967Z,11.20
2023-10-08T12:25:56.674Z,11.10
2023-10-08T12:28:28.893Z,11.10
2023-10-08T12:30:58.635Z,11.00
2023-10-08T12:33:27.261Z,11.00
2023-10-08T12:35:57.161Z,10.90
2023-10-08T12:38:26.611Z,10.90
2023-10-08T12:40:54.932Z,10.90
2023-10-08T12:43:23.315Z,10.90
2023-10-08T12:45:54.245Z,10.90
2023-10-08T12:48:22.550Z,10.90
2023-10-08T12:50:54.556Z,10.90
2023-10-08T12:53:28.179Z,10.80
2023-10-08T12:55:57.572Z,10.80
2023-10-08T12:58:26.864Z,10.70
2023-10-08T13:00:58.695Z,10.60
2023-10-08T13:03:31.633Z,10.50
2023-10-08T13:06:05.114Z,10.50
2023-10-08T13:08:35.384Z,10.50
2023-10-08T13:11:03.314Z,10.40
2023-10-08T13:13:31.410Z,10.40
2023-10-08T13:16:01.474Z,10.40
2023-10-08T13:18:29.535Z,10.40
2023-10-08T13:20:58.987Z,10.40
2023-10-08T13:23:26.953Z,10.40
2023-10-08T13:25:56.615Z,10.40
2023-10-08T13:28:24.822Z,10.40
2023-10-08T13:30:55.282Z,10.40
2023-10-08T13:33:24.517Z,10.40
2023-10-08T13:36:03.665Z,10.40
2023-10-08T13:38:39.733Z,10.40
2023-10-08T13:41:15.995Z,10.40
2023-10-08T13:43:46.508Z,10.40
2023-10-08T13:46:15.165Z,10.40
2023-10-08T13:48:47.850Z,10.40
2023-10-08T13:51:16.478Z,10.40
2023-10-08T13:53:46.524Z,10.40
2023-10-08T13:56:16.974Z,10.40
2023-10-08T13:58:50.802Z,10.40
2023-10-08T14:01:22.103Z,10.40
2023-10-08T14:03:54.406Z,10.50
2023-10-08T14:06:23.164Z,10.50
2023-10-08T14:08:53.586Z,10.60
2023-10-08T14:11:27.180Z,10.60
2023-10-08T14:13:55.298Z,10.70
2023-10-08T14:16:24.462Z,10.70
2023-10-08T14:18:55.215Z,10.70
2023-10-08T14:21:25.547Z,10.70
2023-10-08T14:23:54.405Z,10.70
2023-10-08T14:26:23.892Z,10.60
2023-10-08T14:28:58.641Z,10.60
2023-10-08T14:31:28.022Z,10.50
2023-10-08T14:34:06.529Z,10.50
2023-10-08T14:36:57.731Z,10.50
2023-10-08T14:39:45.671Z,10.50
2023-10-08T14:42:32.771Z,10.50
2023-10-08T14:45:01.005Z,10.50
2023-10-08T14:47:29.219Z,10.40
2023-10-08T14:49:57.881Z,10.40
2023-10-08T14:52:26.770Z,10.40
2023-10-08T14:54:54.864Z,10.40
2023-10-08T14:57:25.765Z,10.40
2023-10-08T14:59:53.984Z,10.30
2023-10-08T15:02:23.264Z,10.30
2023-10-08T15:04:51.446Z,10.30
2023-10-08T15:07:19.454Z,10.20
2023-10-08T15:09:47.402Z,10.20
2023-10-08T15:12:17.492Z,10.20
2023-10-08T15:14:50.094Z,10.20
2023-10-08T15:17:18.398Z,10.10
2023-10-08T15:19:47.315Z,10.10
2023-10-08T15:22:15.449Z,10.00
2023-10-08T15:24:44.689Z,10.00
2023-10-08T15:27:12.945Z,10.00
2023-10-08T15:29:40.920Z,10.00
2023-10-08T15:32:10.831Z,10.00
2023-10-08T15:34:42.562Z,9.90
2023-10-08T15:37:12.371Z,9.90
2023-10-08T15:39:41.783Z,9.90
2023-10-08T15:42:09.881Z,9.90
2023-10-08T15:44:37.951Z,9.90
2023-10-08T15:47:07.312Z,9.90
2023-10-08T15:49:36.641Z,9.80
2023-10-08T15:52:05.905Z,9.80
2023-10-08T15:54:34.150Z,9.80
2023-10-08T15:57:02.374Z,9.80
2023-10-08T15:59:30.298Z,9.70
2023-10-08T16:02:00.336Z,9.80
2023-10-08T16:04:29.713Z,9.70
2023-10-08T16:07:00.095Z,9.70
2023-10-08T16:09:29.178Z,9.70
2023-10-08T16:11:58.469Z,9.70
2023-10-08T16:14:26.406Z,9.70
2023-10-08T16:16:54.446Z,9.70
2023-10-08T16:19:26.728Z,9.70
2023-10-08T16:21:55.655Z,9.60
2023-10-08T16:24:26.403Z,9.60
2023-10-08T16:26:54.557Z,9.60
2023-10-08T16:29:22.580Z,9.50
2023-10-08T16:31:51.161Z,9.50
2023-10-08T16:34:19.464Z,9.50
2023-10-08T16:36:47.421Z,9.50
2023-10-08T16:39:18.633Z,9.50
2023-10-08T16:41:48.225Z,9.50
2023-10-08T16:44:16.207Z,9.50
2023-10-08T16:46:45.716Z,9.50
2023-10-08T16:49:13.888Z,9.50
2023-10-08T16:51:42.609Z,9.50
2023-10-08T16:54:16.067Z,9.50
2023-10-08T16:56:45.299Z,9.50
2023-10-08T16:59:16.210Z,9.50
2023-10-08T17:01:44.842Z,9.40
2023-10-08T17:04:13.808Z,9.40
2023-10-08T17:06:42.434Z,9.40
2023-10-08T17:09:15.912Z,9.40
2023-10-08T17:11:46.702Z,9.40
2023-10-08T17:14:16.510Z,9.40
2023-10-08T17:16:44.842Z,9.40
2023-10-08T17:19:14.072Z,9.40
2023-10-08T17:21:42.446Z,9.40
2023-10-08T17:24:10.895Z,9.40
2023-10-08T17:26:39.486Z,9.40
2023-10-08T17:29:08.296Z,9.40
2023-10-08T17:31:38.780Z,9.30
2023-10-08T17:34:07.828Z,9.30
2023-10-08T17:36:37.479Z,9.40
2023-10-08T17:39:10.444Z,9.40
2023-10-08T17:41:38.907Z,9.30
2023-10-08T17:44:07.931Z,9.30
2023-10-08T17:46:38.808Z,9.30
2023-10-08T17:49:07.421Z,9.40
2023-10-08T17:51:36.770Z,9.30
2023-10-08T17:54:05.714Z,9.40
2023-10-08T17:56:34.132Z,9.40
2023-10-08T17:59:02.002Z,9.40
2023-10-08T18:01:30.316Z,9.30
2023-10-08T18:04:00.137Z,9.30
2023-10-08T18:06:28.323Z,9.30
2023-10-08T18:08:56.298Z,9.30
2023-10-08T18:11:24.602Z,9.30
2023-10-08T18:13:52.535Z,9.30
2023-10-08T18:16:21.572Z,9.30
2023-10-08T18:18:50.655Z,9.40
2023-10-08T18:21:20.080Z,9.40
2023-10-08T18:23:49.996Z,9.40
2023-10-08T18:26:18.598Z,9.40
2023-10-08T18:28:47.073Z,9.40
2023-10-08T18:31:17.508Z,9.40
2023-10-08T18:33:48.561Z,9.40
2023-10-08T18:36:17.348Z,9.40
2023-10-08T18:38:46.703Z,9.40
2023-10-08T18:41:16.840Z,9.40
2023-10-08T18:43:45.340Z,9.40
2023-10-08T18:46:15.147Z,9.40
2023-10-08T18:48:43.179Z,9.40
2023-10-08T18:51:12.356Z,9.40
2023-10-08T18:53:41.035Z,9.50
2023-10-08T18:56:12.302Z,9.50
2023-10-08T18:58:40.470Z,9.40
2023-10-08T19:01:08.836Z,9.50
2023-10-08T19:03:37.829Z,9.50
2023-10-08T19:06:09.227Z,9.50
2023-10-08T19:08:38.013Z,9.50
2023-10-08T19:11:08.944Z,9.50
2023-10-08T19:13:38.656Z,9.40
2023-10-08T19:16:08.263Z,9.40
2023-10-08T19:18:37.229Z,9.50
2023-10-08T19:21:07.374Z,9.50
2023-10-08T19:23:37.366Z,9.50
2023-10-08T19:26:05.393Z,9.50
2023-10-08T19:28:34.245Z,9.50
2023-10-08T19:31:06.533Z,9.50
2023-10-08T19:33:35.475Z,9.50
2023-10-08T19:36:04.444Z,9.50
2023-10-08T19:38:32.386Z,9.50
2023-10-08T19:41:00.347Z,9.50
2023-10-08T19:43:28.268Z,9.50
2023-10-08T19:45:58.317Z,9.50
2023-10-08T19:48:28.669Z,9.50
2023-10-08T19:50:56.973Z,9.50
2023-10-08T19:53:25.421Z,9.50
2023-10-08T19:55:53.448Z,9.50
2023-10-08T19:58:21.882Z,9.40
2023-10-08T20:00:51.111Z,9.40
2023-10-08T20:03:21.197Z,9.50
2023-10-08T20:05:50.870Z,9.40
2023-10-08T20:08:21.246Z,9.40
2023-10-08T20:10:49.861Z,9.40
2023-10-08T20:13:18.172Z,9.40
2023-10-08T20:15:46.607Z,9.40
2023-10-08T20:18:14.720Z,9.40
2023-10-08T20:20:42.968Z,9.40
2023-10-08T20:23:13.364Z,9.40
2023-10-08T20:25:42.358Z,9.40
2023-10-08T20:28:10.741Z,9.40
2023-10-08T20:30:42.604Z,9.40
2023-10-08T20:33:11.323Z,9.30
2023-10-08T20:35:39.508Z,9.40
2023-10-08T20:38:07.941Z,9.30
2023-10-08T20:40:37.432Z,9.30
2023-10-08T20:43:06.667Z,9.30
2023-10-08T20:45:34.663Z,9.30
2023-10-08T20:48:02.878Z,9.30
2023-10-08T20:50:33.503Z,9.30
2023-10-08T20:53:02.962Z,9.30
2023-10-08T20:55:35.042Z,9.30
2023-10-08T20:58:05.457Z,9.30
2023-10-08T21:00:33.786Z,9.30
2023-10-08T21:03:03.996Z,9.30
2023-10-08T21:05:32.540Z,9.40
2023-10-08T21:08:01.194Z,9.40
2023-10-08T21:10:29.164Z,9.30
2023-10-08T21:12:57.839Z,9.30
2023-10-08T21:15:28.425Z,9.30
2023-10-08T21:17:56.743Z,9.30
2023-10-08T21:20:24.922Z,9.30
2023-10-08T21:22:53.511Z,9.30
2023-10-08T21:25:22.198Z,9.40
2023-10-08T21:27:53.066Z,9.40
2023-10-08T21:30:21.050Z,9.40
2023-10-08T21:32:51.259Z,9.40
2023-10-08T21:35:19.749Z,9.40
2023-10-08T21:37:48.698Z,9.40
2023-10-08T21:40:17.352Z,9.40
2023-10-08T21:42:45.969Z,9.40
2023-10-08T21:45:14.885Z,9.40
2023-10-08T21:47:43.773Z,9.40
2023-10-08T21:50:14.216Z,9.40
2023-10-08T21:52:42.408Z,9.40
2023-10-08T21:55:10.658Z,9.50
2023-10-08T21:57:38.898Z,9.50
2023-10-08T22:00:14.518Z,9.50
2023-10-08T22:02:45.924Z,9.40
2023-10-08T22:05:17.174Z,9.40
2023-10-08T22:07:45.696Z,9.50
2023-10-08T22:10:13.704Z,9.40
2023-10-08T22:12:42.291Z,9.40
2023-10-08T22:15:18.344Z,9.40
2023-10-08T22:17:46.826Z,9.50
2023-10-08T22:20:38.016Z,9.40
2023-10-08T22:23:06.331Z,9.50
2023-10-08T22:25:37.778Z,9.50
2023-10-08T22:28:12.280Z,9.50
2023-10-08T22:30:43.548Z,9.50
2023-10-08T22:33:12.925Z,9.40
2023-10-08T22:35:43.895Z,9.50
2023-10-08T22:38:16.476Z,9.50
2023-10-08T22:41:11.116Z,9.50
2023-10-08T22:43:40.827Z,9.50
2023-10-08T22:46:09.963Z,9.50
2023-10-08T22:48:44.280Z,9.50
2023-10-08T22:51:24.206Z,9.50
2023-10-08T22:53:52.765Z,9.60
2023-10-08T22:56:21.055Z,9.60
2023-10-08T22:58:50.817Z,9.50
2023-10-08T23:01:20.428Z,9.50
2023-10-08T23:03:51.616Z,9.50
2023-10-08T23:06:22.648Z,9.50
2023-10-08T23:08:51.417Z,9.50
2023-10-08T23:11:21.244Z,9.60
2023-10-08T23:13:51.493Z,9.60
2023-10-08T23:16:21.011Z,9.50
2023-10-08T23:18:51.967Z,9.50
2023-10-08T23:21:22.205Z,9.60
2023-10-08T23:23:51.159Z,9.50
2023-10-08T23:26:19.836Z,9.60
2023-10-08T23:28:48.308Z,9.60
2023-10-08T23:31:18.976Z,9.50
2023-10-08T23:33:50.088Z,9.60
2023-10-08T23:36:27.839Z,9.50
2023-10-08T23:39:07.526Z,9.60
2023-10-08T23:41:48.839Z,9.60
2023-10-08T23:44:19.554Z,9.60
2023-10-08T23:46:58.392Z,9.60
2023-10-08T23:49:29.176Z,9.60
2023-10-08T23:51:58.176Z,9.60
2023-10-08T23:54:28.716Z,9.60
2023-10-08T23:57:00.951Z,9.60
2023-10-08T23:59:41.223Z,9.60
